Time;durP1;ratioP1;P1;durP2;ratioP2;P2;SDS_P1;SDS_P2;PMS_P1;PMS_P2;Temp;Humidity;BMP_temperature;BMP_pressure;BME280_temperature;BME280_humidity;BME280_pressure;Samples;Min_cycle;Max_cycle;Signal;HPM_P1;HPM_P2
2022/08/02 00:01:23;;;;;;;;;;;;;;;16.43;100.00;146865.38;5062767;28;20019;-80
2022/08/02 00:03:50;;;;;;;;;;;;;;;16.50;100.00;146882.03;5092147;28;19920;-81
2022/08/02 00:06:16;;;;;;;;;;;;;;;16.48;100.00;146876.88;5074318;28;19916;-79
2022/08/02 00:08:41;;;;;;;;;;;;;;;16.37;100.00;146848.81;5076529;28;19966;-81
2022/08/02 00:11:06;;;;;;;;;;;;;;;16.41;100.00;146860.28;5086710;28;19969;-81
2022/08/02 00:13:32;;;;;;;;;;;;;;;16.34;100.00;146842.41;5091423;28;20475;-80
2022/08/02 00:15:58;;;;;;;;;;;;;;;16.27;100.00;146824.53;5076869;28;19920;-81
2022/08/02 00:18:23;;;;;;;;;;;;;;;16.23;100.00;146814.31;5074375;28;19924;-80
2022/08/02 00:20:48;;;;;;;;;;;;;;;16.11;100.00;146784.91;5075314;28;19962;-81
2022/08/02 00:23:15;;;;;;;;;;;;;;;16.11;100.00;146786.22;5073629;28;19920;-81
2022/08/02 00:25:40;;;;;;;;;;;;;;;16.08;100.00;140940.44;5076258;28;19947;-81
2022/08/02 00:28:05;;;;;;;;;;;;;;;15.95;100.00;136105.63;5092909;28;19916;-81
2022/08/02 00:30:31;;;;;;;;;;;;;;;15.97;100.00;122418.28;5088043;28;19917;-79
2022/08/02 00:32:56;;;;;;;;;;;;;;;15.87;100.00;117274.94;5079968;28;20001;-80
2022/08/02 00:35:21;;;;;;;;;;;;;;;15.82;100.00;113853.84;5074649;28;20316;-78
2022/08/02 00:37:47;;;;;;;;;;;;;;;15.81;100.00;110784.66;5075942;28;19976;-80
2022/08/02 00:40:12;;;;;;;;;;;;;;;15.81;100.00;112830.19;5093883;28;19916;-79
2022/08/02 00:42:39;;;;;;;;;;;;;;;15.86;100.00;111135.13;5084496;28;19923;-79
2022/08/02 00:45:04;;;;;;;;;;;;;;;15.86;100.00;108750.72;5073611;28;19916;-79
2022/08/02 00:47:30;;;;;;;;;;;;;;;15.77;100.00;104991.78;5076286;28;20405;-79
2022/08/02 00:49:55;;;;;;;;;;;;;;;15.85;100.00;103304.03;5083735;28;19970;-79
2022/08/02 00:52:21;;;;;;;;;;;;;;;15.85;100.00;105344.97;5091705;28;19919;-79
2022/08/02 00:54:47;;;;;;;;;;;;;;;15.77;100.00;109075.88;5092800;28;19955;-77
2022/08/02 00:57:12;;;;;;;;;;;;;;;15.78;100.00;109758.91;5093025;28;20291;-79
2022/08/02 00:59:37;;;;;;;;;;;;;;;15.72;100.00;109746.28;5090138;28;20732;-79
2022/08/02 01:02:02;;;;;;;;;;;;;;;15.67;100.00;110078.09;5092658;28;20019;-82
2022/08/02 01:04:46;;;;;;;;;;;;;;;15.69;100.00;107018.19;5092040;28;19923;-81
2022/08/02 01:07:13;;;;;;;;;;;;;;;15.60;100.00;104620.19;5093195;28;19959;-82
2022/08/02 01:09:38;;;;;;;;;;;;;;;15.60;100.00;104621.09;5082143;28;19927;-81
2022/08/02 01:12:03;;;;;;;;;;;;;;;15.60;100.00;101900.72;5093001;28;19916;-81
2022/08/02 01:14:29;;;;;;;;;;;;;;;15.56;100.00;108014.44;5092987;28;20437;-81
2022/08/02 01:17:03;;;;;;;;;;;;;;;15.57;100.00;115169.22;5091412;28;20027;-79
2022/08/02 01:19:42;;;;;;;;;;;;;;;15.53;100.00;123693.28;5078881;28;19920;-83
2022/08/02 01:22:15;;;;;;;;;;;;;;;15.57;100.00;127460.47;5074265;28;19974;-82
2022/08/02 01:24:43;;;;;;;;;;;;;;;15.53;100.00;136693.56;5073735;28;19924;-82
2022/08/02 01:27:08;;;;;;;;;;;;;;;15.51;100.00;145185.19;5108275;28;19917;-81
2022/08/02 01:29:37;;;;;;;;;;;;;;;15.47;100.00;145176.50;5108059;28;19917;-79
2022/08/02 01:32:11;;;;;;;;;;;;;;;15.48;100.00;146627.84;5082984;28;19977;-82
2022/08/02 01:34:43;;;;;;;;;;;;;;;15.44;100.00;144711.50;5105494;28;19927;-81
2022/08/02 01:37:08;;;;;;;;;;;;;;;15.42;100.00;145910.84;5090795;28;19924;-82
2022/08/02 01:39:35;;;;;;;;;;;;;;;15.43;100.00;146617.59;5106197;28;20377;-82
2022/08/02 01:42:00;;;;;;;;;;;;;;;15.43;100.00;144704.91;5074244;28;20095;-80
2022/08/02 01:44:27;;;;;;;;;;;;;;;15.43;100.00;145954.91;5090068;28;19993;-82
2022/08/02 01:46:55;;;;;;;;;;;;;;;15.32;100.00;146589.53;5071373;28;19923;-81
2022/08/02 01:49:22;;;;;;;;;;;;;;;15.36;100.00;146598.47;5106681;28;20003;-81
2022/08/02 01:54:35;;;;;;;;;;;;;;;15.27;100.00;133894.50;5094232;28;19978;-81
2022/08/02 01:57:02;;;;;;;;;;;;;;;15.28;100.00;132527.81;5091417;28;20367;-80
2022/08/02 01:59:30;;;;;;;;;;;;;;;15.25;100.00;126025.59;5092634;28;19962;-82
2022/08/02 02:01:57;;;;;;;;;;;;;;;15.21;100.00;127724.13;5091720;28;19979;-82
2022/08/02 02:04:24;;;;;;;;;;;;;;;15.24;100.00;129098.19;5089075;28;19943;-83
2022/08/02 02:06:50;;;;;;;;;;;;;;;15.19;100.00;133875.81;5073102;28;19920;-81
2022/08/02 02:09:15;;;;;;;;;;;;;;;15.21;100.00;143991.25;5075704;28;20011;-82
2022/08/02 02:11:45;;;;;;;;;;;;;;;15.24;100.00;146570.41;5090765;28;19916;-82
2022/08/02 02:14:11;;;;;;;;;;;;;;;15.24;100.00;146570.41;5092317;28;20356;-81
2022/08/02 02:16:37;;;;;;;;;;;;;;;15.26;100.00;146575.47;5093114;28;19916;-81
2022/08/02 02:19:02;;;;;;;;;;;;;;;15.23;100.00;146567.81;5093280;28;20380;-81
2022/08/02 02:21:28;;;;;;;;;;;;;;;15.21;100.00;146561.44;5092521;28;19916;-81
2022/08/02 02:23:55;;;;;;;;;;;;;;;15.21;100.00;146561.44;5092097;28;19916;-80
2022/08/02 02:26:22;;;;;;;;;;;;;;;15.20;100.00;146558.91;5092555;28;19923;-81
2022/08/02 02:28:48;;;;;;;;;;;;;;;15.19;100.00;146556.34;5092428;28;19923;-82
2022/08/02 02:31:17;;;;;;;;;;;;;;;15.16;100.00;146549.94;5092944;28;19920;-83
2022/08/02 02:33:47;;;;;;;;;;;;;;;15.22;100.00;146564.00;5092345;28;19938;-81
2022/08/02 02:36:17;;;;;;;;;;;;;;;15.26;100.00;146575.47;5092208;28;19916;-81
2022/08/02 02:38:43;;;;;;;;;;;;;;;15.24;100.00;146569.09;5086193;28;19916;-81
2022/08/02 02:41:08;;;;;;;;;;;;;;;15.24;100.00;146569.09;5090323;28;19927;-82
2022/08/02 02:43:35;;;;;;;;;;;;;;;15.20;100.00;146560.16;5078859;28;20360;-81
2022/08/02 02:46:04;;;;;;;;;;;;;;;15.23;100.00;146566.56;5070807;28;20365;-82
2022/08/02 02:48:30;;;;;;;;;;;;;;;15.18;100.00;146555.06;5070432;28;20368;-79
2022/08/02 02:50:56;;;;;;;;;;;;;;;15.17;100.00;146551.25;5085538;28;19981;-81
2022/08/02 02:53:22;;;;;;;;;;;;;;;15.02;100.00;146515.53;5092010;28;19923;-81
2022/08/02 02:55:48;;;;;;;;;;;;;;;15.01;100.00;146511.69;5085558;28;19916;-79
2022/08/02 02:58:14;;;;;;;;;;;;;;;15.04;100.00;146519.34;5071691;28;20387;-80
2022/08/02 03:03:40;;;;;;;;;;;;;;;15.00;100.00;146510.38;5073357;28;19974;-79
2022/08/02 03:06:05;;;;;;;;;;;;;;;15.02;100.00;146515.53;5071830;28;19920;-80
2022/08/02 03:08:30;;;;;;;;;;;;;;;14.97;100.00;146502.72;5071874;28;19916;-78
2022/08/02 03:10:56;;;;;;;;;;;;;;;14.99;100.00;146507.88;5084134;28;19924;-78
2022/08/02 03:13:23;;;;;;;;;;;;;;;15.00;100.00;146509.13;5091904;28;19920;-82
2022/08/02 03:15:52;;;;;;;;;;;;;;;15.03;100.00;146518.03;5081426;28;19952;-79
2022/08/02 03:18:30;;;;;;;;;;;;;;;15.01;100.00;146512.97;5095595;28;19920;-78
2022/08/02 03:21:03;;;;;;;;;;;;;;;14.97;100.00;146501.47;5081251;28;20276;-82
2022/08/02 03:23:33;;;;;;;;;;;;;;;14.97;100.00;146502.72;5075241;28;19917;-82
2022/08/02 03:25:59;;;;;;;;;;;;;;;14.94;100.00;146493.81;5074966;28;19974;-81
2022/08/02 03:28:24;;;;;;;;;;;;;;;14.93;100.00;146492.56;5074978;28;19947;-81
2022/08/02 03:30:49;;;;;;;;;;;;;;;14.87;100.00;146478.50;5075313;28;19923;-79
2022/08/02 03:33:17;;;;;;;;;;;;;;;14.87;100.00;146477.25;5082695;28;19920;-82
2022/08/02 03:35:44;;;;;;;;;;;;;;;14.95;100.00;146497.63;5095419;28;19928;-82
2022/08/02 03:38:11;;;;;;;;;;;;;;;14.92;100.00;146488.72;5081622;28;19920;-81
2022/08/02 03:40:37;;;;;;;;;;;;;;;14.92;100.00;146488.72;5086441;28;20010;-82
2022/08/02 03:43:05;;;;;;;;;;;;;;;14.90;100.00;146484.91;5095044;28;19973;-81
2022/08/02 03:45:30;;;;;;;;;;;;;;;14.83;100.00;146468.28;5094923;28;19916;-80
2022/08/02 03:47:56;;;;;;;;;;;;;;;14.84;100.00;146470.84;5094829;28;20023;-80
2022/08/02 03:50:22;;;;;;;;;;;;;;;14.81;100.00;146463.19;5095238;28;20018;-82
2022/08/02 03:52:47;;;;;;;;;;;;;;;14.74;100.00;146444.03;5092757;28;19968;-81
2022/08/02 03:55:13;;;;;;;;;;;;;;;14.76;100.00;146450.44;5080277;28;19924;-82
2022/08/02 03:57:38;;;;;;;;;;;;;;;14.71;100.00;146438.97;5076560;28;20612;-80
2022/08/02 04:00:05;;;;;;;;;;;;;;;14.66;100.00;146424.91;5094404;28;20426;-81
2022/08/02 04:02:30;;;;;;;;;;;;;;;14.71;100.00;146437.66;5087597;28;20372;-81
2022/08/02 04:04:55;;;;;;;;;;;;;;;14.69;100.00;146433.81;5075157;28;19950;-83
2022/08/02 04:07:20;;;;;;;;;;;;;;;14.67;100.00;146428.72;5075296;28;19923;-82
2022/08/02 04:09:46;;;;;;;;;;;;;;;14.63;100.00;146418.50;5074202;28;20163;-81
2022/08/02 04:12:11;;;;;;;;;;;;;;;14.60;100.00;146410.84;5075166;28;20047;-81
2022/08/02 04:14:38;;;;;;;;;;;;;;;14.54;100.00;146395.50;5073189;28;19916;-81
2022/08/02 04:17:06;;;;;;;;;;;;;;;14.59;100.00;146408.28;5078997;28;19924;-81
2022/08/02 04:19:35;;;;;;;;;;;;;;;14.59;100.00;146408.28;5078083;28;19964;-81
2022/08/02 04:22:03;;;;;;;;;;;;;;;14.59;100.00;146408.28;5074655;28;19927;-82
2022/08/02 04:24:33;;;;;;;;;;;;;;;14.58;100.00;146405.72;5073659;28;19943;-82
2022/08/02 04:27:01;;;;;;;;;;;;;;;14.66;100.00;146424.91;5072841;28;19924;-82
2022/08/02 04:29:26;;;;;;;;;;;;;;;14.64;100.00;146419.81;5082175;28;19943;-79
2022/08/02 04:31:52;;;;;;;;;;;;;;;14.75;100.00;146447.88;5074559;28;19924;-81
2022/08/02 04:34:21;;;;;;;;;;;;;;;14.80;100.00;146459.34;5107221;28;19924;-79
2022/08/02 04:36:46;;;;;;;;;;;;;;;14.84;100.00;146470.84;5075501;28;19935;-80
2022/08/02 04:39:12;;;;;;;;;;;;;;;15.34;100.00;146593.38;5084823;28;19998;-77
2022/08/02 04:41:40;;;;;;;;;;;;;;;16.26;100.00;146823.22;5092447;28;20422;-79
2022/08/02 04:44:08;;;;;;;;;;;;;;;16.89;100.00;146977.88;5092895;28;19917;-81
2022/08/02 04:46:34;;;;;;;;;;;;;;;17.93;100.00;147237.47;5093499;28;19916;-80
2022/08/02 04:48:59;;;;;;;;;;;;;;;18.55;100.00;147392.25;5083252;28;20010;-80
2022/08/02 04:51:25;;;;;;;;;;;;;;;18.97;100.00;147497.22;5092831;28;19963;-81
2022/08/02 04:53:52;;;;;;;;;;;;;;;18.97;100.00;147497.22;5093433;28;19939;-80
2022/08/02 04:56:17;;;;;;;;;;;;;;;18.78;100.00;147448.53;5093318;28;19916;-81
2022/08/02 04:58:43;;;;;;;;;;;;;;;18.30;100.00;147329.53;5092900;28;19939;-80
2022/08/02 05:01:08;;;;;;;;;;;;;;;17.74;100.00;147190.06;5088098;28;19916;-81
2022/08/02 05:03:36;;;;;;;;;;;;;;;17.62;100.00;147160.69;5084186;28;19999;-81
2022/08/02 05:06:02;;;;;;;;;;;;;;;17.44;100.00;147115.94;5071476;28;19924;-81
2022/08/02 05:08:27;;;;;;;;;;;;;;;17.31;100.00;147083.97;5075034;28;19920;-80
2022/08/02 05:10:53;;;;;;;;;;;;;;;17.15;100.00;147043.06;5078018;28;19920;-77
2022/08/02 05:13:26;;;;;;;;;;;;;;;17.11;100.00;147032.84;5072341;28;19920;-82
2022/08/02 05:15:52;;;;;;;;;;;;;;;17.00;100.00;147006.03;5072852;28;20436;-79
2022/08/02 05:18:18;;;;;;;;;;;;;;;17.16;100.00;147045.63;5072497;28;19925;-81
2022/08/02 05:20:44;;;;;;;;;;;;;;;17.54;100.00;147141.50;5073161;28;19916;-81
2022/08/02 05:23:09;;;;;;;;;;;;;;;18.37;100.00;147347.44;5090783;28;20275;-81
2022/08/02 05:25:34;;;;;;;;;;;;;;;18.73;100.00;147437.00;5072840;28;19917;-82
2022/08/02 05:28:00;;;;;;;;;;;;;;;18.49;100.00;147376.88;5083300;28;19920;-80
2022/08/02 05:30:25;;;;;;;;;;;;;;;18.41;100.00;147356.38;5082595;28;19928;-80
2022/08/02 05:32:52;;;;;;;;;;;;;;;18.28;100.00;147324.41;5105459;28;19921;-81
2022/08/02 05:35:21;;;;;;;;;;;;;;;18.37;100.00;147346.19;5090010;28;19924;-80
2022/08/02 05:37:47;;;;;;;;;;;;;;;18.48;100.00;147375.56;5071266;28;19920;-80
2022/08/02 05:40:13;;;;;;;;;;;;;;;18.93;100.00;147485.69;5072042;28;19986;-81
2022/08/02 05:42:42;;;;;;;;;;;;;;;19.39;100.00;147600.91;5085528;28;19920;-82
2022/08/02 05:45:08;;;;;;;;;;;;;;;20.01;100.00;147755.88;5070526;28;19943;-81
2022/08/02 05:47:34;;;;;;;;;;;;;;;19.95;100.00;147739.19;5104352;28;20352;-81
2022/08/02 05:49:59;;;;;;;;;;;;;;;19.88;100.00;147722.56;5070976;28;19924;-82
2022/08/02 05:52:35;;;;;;;;;;;;;;;20.23;100.00;147810.94;5072300;28;19954;-81
2022/08/02 05:55:06;;;;;;;;;;;;;;;20.12;100.00;147781.47;5071746;28;19916;-80
2022/08/02 05:57:52;;;;;;;;;;;;;;;19.79;100.00;147699.53;5072093;28;19919;-80
2022/08/02 06:00:18;;;;;;;;;;;;;;;19.63;100.00;147661.06;5071698;28;19916;-81
2022/08/02 06:02:44;;;;;;;;;;;;;;;19.70;100.00;147679.00;5104988;28;19919;-77
2022/08/02 06:05:10;;;;;;;;;;;;;;;20.54;100.00;147887.81;5070739;28;19942;-80
2022/08/02 06:07:35;;;;;;;;;;;;;;;21.01;100.00;148004.47;5070700;28;19924;-80
2022/08/02 06:10:04;;;;;;;;;;;;;;;20.86;100.00;147967.28;5071005;28;19994;-79
2022/08/02 06:12:59;;;;;;;;;;;;;;;20.07;100.00;147771.25;5083455;28;19964;-80
2022/08/02 06:15:25;;;;;;;;;;;;;;;20.12;100.00;147781.47;5078826;28;19943;-80
2022/08/02 06:17:51;;;;;;;;;;;;;;;19.99;100.00;147750.72;5092196;28;20364;-80
2022/08/02 06:20:17;;;;;;;;;;;;;;;19.94;100.00;147737.94;5092785;28;19916;-77
2022/08/02 06:22:49;;;;;;;;;;;;;;;20.09;100.00;147775.09;5083996;28;19916;-79
2022/08/02 06:25:15;;;;;;;;;;;;;;;20.14;100.00;147786.63;5089624;28;20420;-81
2022/08/02 06:27:40;;;;;;;;;;;;;;;20.34;100.00;147836.53;5092122;28;19916;-79
2022/08/02 06:30:07;;;;;;;;;;;;;;;20.43;100.00;147859.59;5080878;28;19916;-80
2022/08/02 06:32:35;;;;;;;;;;;;;;;20.51;100.00;147878.81;5070740;28;19932;-78
2022/08/02 06:35:01;;;;;;;;;;;;;;;20.59;100.00;147899.34;5098686;28;20032;-81
2022/08/02 06:37:36;;;;;;;;;;;;;;;20.42;100.00;147857.06;5052375;28;20007;-78
2022/08/02 06:40:24;;;;;;;;;;;;;;;20.32;100.00;147831.44;5058289;28;20376;-77
2022/08/02 06:42:56;;;;;;;;;;;;;;;20.18;100.00;147796.84;5069334;28;19930;-80
2022/08/02 06:45:21;;;;;;;;;;;;;;;20.03;100.00;147759.72;5069968;28;19952;-81
2022/08/02 06:47:46;;;;;;;;;;;;;;;20.28;100.00;147822.47;5069449;28;19959;-79
2022/08/02 06:50:12;;;;;;;;;;;;;;;20.48;100.00;147871.13;5072607;28;19920;-80
2022/08/02 06:52:37;;;;;;;;;;;;;;;20.51;100.00;147880.13;5073356;28;19921;-80
2022/08/02 06:55:03;;;;;;;;;;;;;;;20.34;100.00;147837.84;5072949;28;19916;-82
2022/08/02 06:57:28;;;;;;;;;;;;;;;20.36;100.00;147841.69;5073197;28;19917;-79
2022/08/02 06:59:54;;;;;;;;;;;;;;;20.31;100.00;147830.16;5073740;28;19917;-78
2022/08/02 07:02:20;;;;;;;;;;;;;;;20.39;100.00;147849.38;5107063;28;20593;-79
2022/08/02 07:04:45;;;;;;;;;;;;;;;20.35;100.00;147839.13;5073210;28;19916;-81
2022/08/02 07:07:11;;;;;;;;;;;;;;;20.48;100.00;147872.44;5073175;28;19917;-80
2022/08/02 07:09:36;;;;;;;;;;;;;;;20.83;100.00;147958.34;5074700;28;19916;-80
2022/08/02 07:12:01;;;;;;;;;;;;;;;21.01;100.00;148004.47;5072891;28;19917;-80
2022/08/02 07:14:26;;;;;;;;;;;;;;;21.09;100.00;148023.69;5072905;28;19916;-79
2022/08/02 07:16:52;;;;;;;;;;;;;;;22.29;100.00;148323.75;5073386;28;19917;-80
2022/08/02 07:19:17;;;;;;;;;;;;;;;23.82;100.00;148705.06;5106574;28;20473;-80
2022/08/02 07:21:43;;;;;;;;;;;;;;;25.42;100.00;149106.00;5072379;28;19924;-81
2022/08/02 07:24:08;;;;;;;;;;;;;;;26.36;100.00;149338.78;5072336;28;20004;-81
2022/08/02 07:26:33;;;;;;;;;;;;;;;26.73;100.00;149432.72;5072999;28;19924;-76
2022/08/02 07:28:59;;;;;;;;;;;;;;;26.83;100.00;149458.44;5105671;28;19974;-80
2022/08/02 07:31:24;;;;;;;;;;;;;;;26.25;100.00;149311.75;5073560;28;19917;-76
2022/08/02 07:33:49;;;;;;;;;;;;;;;26.45;100.00;149363.19;5072152;28;19966;-76
2022/08/02 07:36:14;;;;;;;;;;;;;;;26.23;100.00;149307.91;5071934;28;19923;-80
2022/08/02 07:38:40;;;;;;;;;;;;;;;26.07;100.00;149268.06;5072295;28;20287;-79
2022/08/02 07:41:05;;;;;;;;;;;;;;;25.18;100.00;149044.25;5072584;28;19923;-81
2022/08/02 07:43:30;;;;;;;;;;;;;;;24.90;100.00;148976.13;5072056;28;19950;-80
2022/08/02 07:45:56;;;;;;;;;;;;;;;25.61;100.00;149152.28;5072106;28;20340;-80
2022/08/02 07:48:21;;;;;;;;;;;;;;;26.36;100.00;149340.03;5072710;28;19981;-77
2022/08/02 07:50:48;;;;;;;;;;;;;;;26.63;100.00;149408.22;5072246;28;19921;-77
2022/08/02 07:53:13;;;;;;;;;;;;;;;26.57;100.00;149392.78;5071929;28;19924;-80
2022/08/02 07:55:39;;;;;;;;;;;;;;;26.55;100.00;149387.63;5072774;28;20369;-82
2022/08/02 07:58:04;;;;;;;;;;;;;;;25.78;100.00;149194.72;5071569;28;20378;-80
2022/08/02 08:00:29;;;;;;;;;;;;;;;26.22;100.00;149305.31;5070772;28;19921;-79
2022/08/02 08:02:55;;;;;;;;;;;;;;;26.35;100.00;149337.44;5072495;28;20262;-80
2022/08/02 08:05:20;;;;;;;;;;;;;;;26.36;100.00;149338.78;5072105;28;20430;-80
2022/08/02 08:07:45;;;;;;;;;;;;;;;26.42;100.00;149355.47;5071925;28;19956;-80
2022/08/02 08:10:11;;;;;;;;;;;;;;;26.72;100.00;149428.84;5071961;28;19916;-79
2022/08/02 08:12:36;;;;;;;;;;;;;;;27.06;100.00;149515.03;5071485;28;20371;-79
2022/08/02 08:15:02;;;;;;;;;;;;;;;26.82;100.00;149455.88;5071541;28;20380;-80
2022/08/02 08:17:27;;;;;;;;;;;;;;;26.67;100.00;149418.53;5073554;28;20007;-80
2022/08/02 08:19:53;;;;;;;;;;;;;;;26.48;100.00;149370.91;5072533;28;19916;-79
2022/08/02 08:22:18;;;;;;;;;;;;;;;26.54;100.00;149385.06;5071862;28;19966;-80
2022/08/02 08:24:44;;;;;;;;;;;;;;;26.72;100.00;149430.13;5071562;28;20384;-79
2022/08/02 08:27:13;;;;;;;;;;;;;;;26.62;100.00;149405.66;5072271;28;19927;-79
2022/08/02 08:29:38;;;;;;;;;;;;;;;26.02;100.00;149253.88;5072343;28;19916;-81
2022/08/02 08:32:04;;;;;;;;;;;;;;;26.42;100.00;149355.47;5070778;28;19931;-81
2022/08/02 08:34:30;;;;;;;;;;;;;;;26.59;100.00;149396.66;5072410;28;19927;-80
2022/08/02 08:36:55;;;;;;;;;;;;;;;26.76;100.00;149439.16;5071351;28;19913;-80
2022/08/02 08:39:20;;;;;;;;;;;;;;;26.73;100.00;149432.72;5070799;28;19916;-81
2022/08/02 08:41:46;;;;;;;;;;;;;;;27.07;100.00;149516.34;5071507;28;19966;-80
2022/08/02 08:44:11;;;;;;;;;;;;;;;27.19;100.00;149548.50;5071579;28;20299;-79
2022/08/02 08:46:36;;;;;;;;;;;;;;;27.79;100.00;149697.84;5071245;28;19932;-79
2022/08/02 08:49:05;;;;;;;;;;;;;;;28.17;100.00;149793.16;5070661;28;19917;-79
2022/08/02 08:51:34;;;;;;;;;;;;;;;28.56;100.00;149891.03;5071287;28;19966;-79
2022/08/02 08:54:02;;;;;;;;;;;;;;;28.55;100.00;149888.44;5071445;28;19942;-81
2022/08/02 08:56:30;;;;;;;;;;;;;;;28.12;100.00;149780.25;5070633;28;20292;-80
2022/08/02 08:58:56;;;;;;;;;;;;;;;27.02;100.00;149504.78;5071010;28;19950;-79
2022/08/02 09:01:21;;;;;;;;;;;;;;;26.47;100.00;149367.06;5070427;28;19954;-75
2022/08/02 09:03:46;;;;;;;;;;;;;;;26.75;100.00;149436.56;5070601;28;19999;-80
2022/08/02 09:06:12;;;;;;;;;;;;;;;26.68;100.00;149419.84;5070837;28;20073;-80
2022/08/02 09:08:37;;;;;;;;;;;;;;;26.42;100.00;149354.22;5071457;28;19924;-79
2022/08/02 09:11:10;;;;;;;;;;;;;;;26.17;100.00;149291.19;5069560;28;20611;-80
2022/08/02 09:13:35;;;;;;;;;;;;;;;26.07;100.00;149266.72;5070743;28;20163;-80
2022/08/02 09:16:02;;;;;;;;;;;;;;;26.54;100.00;149385.06;5069843;28;19977;-78
2022/08/02 09:18:38;;;;;;;;;;;;;;;26.29;100.00;149322.06;5070457;28;19916;-81
2022/08/02 09:21:05;;;;;;;;;;;;;;;27.01;100.00;149502.19;5069907;28;19934;-79
2022/08/02 09:23:34;;;;;;;;;;;;;;;26.76;100.00;149440.44;5070246;28;19974;-81
2022/08/02 09:26:26;;;;;;;;;;;;;;;25.64;100.00;149160.00;5070543;28;20376;-78
2022/08/02 09:28:58;;;;;;;;;;;;;;;25.86;100.00;149214.00;5068087;28;20319;-81
2022/08/02 09:31:23;;;;;;;;;;;;;;;26.01;100.00;149251.31;5070188;28;20357;-78
2022/08/02 09:33:51;;;;;;;;;;;;;;;26.30;100.00;149325.94;5070349;28;19924;-80
2022/08/02 09:36:17;;;;;;;;;;;;;;;26.47;100.00;149367.06;5070120;28;20430;-81
2022/08/02 09:38:55;;;;;;;;;;;;;;;26.11;100.00;149278.31;5070652;28;19940;-78
2022/08/02 09:41:23;;;;;;;;;;;;;;;25.82;100.00;149203.69;5104568;28;20288;-80
2022/08/02 09:43:49;;;;;;;;;;;;;;;25.86;100.00;149215.25;5070090;28;19916;-74
2022/08/02 09:46:23;;;;;;;;;;;;;;;25.64;100.00;149160.00;5070666;28;19917;-79
2022/08/02 09:48:48;;;;;;;;;;;;;;;25.85;100.00;149211.41;5070478;28;19916;-80
2022/08/02 09:51:24;;;;;;;;;;;;;;;25.85;100.00;149211.41;5103198;28;19935;-76
2022/08/02 09:53:54;;;;;;;;;;;;;;;25.83;100.00;149206.28;5069635;28;20452;-77
2022/08/02 09:56:20;;;;;;;;;;;;;;;25.83;100.00;149206.28;5069741;28;19931;-77
2022/08/02 09:58:46;;;;;;;;;;;;;;;26.07;100.00;149266.72;5069939;28;19917;-79
2022/08/02 10:01:11;;;;;;;;;;;;;;;26.26;100.00;149315.63;5070254;28;19985;-79
2022/08/02 10:03:36;;;;;;;;;;;;;;;26.21;100.00;149302.78;5069928;28;19920;-79
2022/08/02 10:06:03;;;;;;;;;;;;;;;26.30;100.00;149324.59;5073678;28;19917;-81
2022/08/02 10:08:29;;;;;;;;;;;;;;;26.23;100.00;149306.63;5080401;28;19917;-78
2022/08/02 10:11:00;;;;;;;;;;;;;;;26.39;100.00;149346.50;5078680;28;19917;-78
2022/08/02 10:13:33;;;;;;;;;;;;;;;26.49;100.00;149372.19;5074978;28;19917;-76
2022/08/02 10:15:59;;;;;;;;;;;;;;;26.38;100.00;149345.16;5073197;28;19924;-75
2022/08/02 10:18:27;;;;;;;;;;;;;;;26.76;100.00;149440.44;5074315;28;20368;-76
2022/08/02 10:20:54;;;;;;;;;;;;;;;26.98;100.00;149494.47;5072490;28;20011;-74
2022/08/02 10:23:20;;;;;;;;;;;;;;;27.09;100.00;149522.75;5071577;28;19928;-80
2022/08/02 10:25:47;;;;;;;;;;;;;;;26.66;100.00;149416.00;5073947;28;19920;-77
2022/08/02 10:28:14;;;;;;;;;;;;;;;26.31;100.00;149327.19;5073871;28;19917;-76
2022/08/02 10:30:41;;;;;;;;;;;;;;;26.43;100.00;149358.06;5074422;28;19948;-75
2022/08/02 10:33:07;;;;;;;;;;;;;;;26.33;100.00;149332.31;5072755;28;19927;-77
2022/08/02 10:35:36;;;;;;;;;;;;;;;26.45;100.00;149361.91;5107617;28;20339;-80
2022/08/02 10:38:06;;;;;;;;;;;;;;;26.90;100.00;149475.16;5073999;28;19912;-77
2022/08/02 10:40:45;;;;;;;;;;;;;;;26.79;100.00;149446.88;5073823;28;19917;-78
2022/08/02 10:43:12;;;;;;;;;;;;;;;26.67;100.00;149418.53;5073116;28;20412;-77
2022/08/02 10:45:38;;;;;;;;;;;;;;;26.83;100.00;149458.44;5073538;28;20011;-77
2022/08/02 10:48:07;;;;;;;;;;;;;;;26.68;100.00;149419.84;5073348;28;20040;-77
2022/08/02 10:50:45;;;;;;;;;;;;;;;26.74;100.00;149435.28;5073233;28;20003;-74
2022/08/02 10:53:27;;;;;;;;;;;;;;;26.87;100.00;149468.72;5106463;28;20278;-77
2022/08/02 10:55:52;;;;;;;;;;;;;;;26.70;100.00;149425.00;5072709;28;20101;-76
2022/08/02 10:58:19;;;;;;;;;;;;;;;26.68;100.00;149419.84;5072869;28;19978;-75
2022/08/02 11:00:44;;;;;;;;;;;;;;;26.74;100.00;149435.28;5072802;28;19917;-76
2022/08/02 11:03:28;;;;;;;;;;;;;;;27.00;100.00;149499.59;5072125;28;19927;-75
2022/08/02 11:06:04;;;;;;;;;;;;;;;26.59;100.00;149397.94;5107618;28;19916;-77
2022/08/02 11:08:30;;;;;;;;;;;;;;;26.71;100.00;149427.59;5073326;28;19965;-80
2022/08/02 11:11:00;;;;;;;;;;;;;;;26.96;100.00;149489.34;5073073;28;19921;-81
2022/08/02 11:13:27;;;;;;;;;;;;;;;27.30;100.00;149574.22;5072647;28;19916;-80
2022/08/02 11:16:01;;;;;;;;;;;;;;;27.50;100.00;149624.47;5074074;28;19916;-82
2022/08/02 11:18:50;;;;;;;;;;;;;;;27.09;100.00;149521.50;5107671;28;19916;-80
2022/08/02 11:21:23;;;;;;;;;;;;;;;26.71;100.00;149427.59;5067148;28;19954;-79
2022/08/02 11:23:50;;;;;;;;;;;;;;;26.70;100.00;149425.00;5072883;28;19959;-75
2022/08/02 11:26:30;;;;;;;;;;;;;;;27.01;100.00;149503.47;5073124;28;19923;-80
2022/08/02 11:28:55;;;;;;;;;;;;;;;27.03;100.00;149507.31;5106358;28;19963;-81
2022/08/02 11:31:21;;;;;;;;;;;;;;;26.67;100.00;149417.28;5073149;28;19956;-81
2022/08/02 11:33:48;;;;;;;;;;;;;;;26.76;100.00;149440.44;5073371;28;19967;-78
2022/08/02 11:36:14;;;;;;;;;;;;;;;26.79;100.00;149446.88;5072758;28;19920;-82
2022/08/02 11:38:39;;;;;;;;;;;;;;;26.72;100.00;149430.13;5073388;28;19916;-81
2022/08/02 11:41:05;;;;;;;;;;;;;;;26.64;100.00;149410.78;5073340;28;19923;-81
2022/08/02 11:43:30;;;;;;;;;;;;;;;26.59;100.00;149396.66;5072924;28;19920;-81
2022/08/02 11:45:56;;;;;;;;;;;;;;;26.77;100.00;149443.03;5072696;28;20391;-80
2022/08/02 11:48:31;;;;;;;;;;;;;;;26.89;100.00;149472.56;5073027;28;19971;-80
2022/08/02 11:51:08;;;;;;;;;;;;;;;26.64;100.00;149410.78;5073051;28;19939;-80
2022/08/02 11:53:40;;;;;;;;;;;;;;;26.80;100.00;149450.75;5072625;28;19912;-80
2022/08/02 11:56:05;;;;;;;;;;;;;;;26.94;100.00;149484.16;5072130;28;19968;-80
2022/08/02 11:58:30;;;;;;;;;;;;;;;27.19;100.00;149548.50;5072365;28;19976;-81
2022/08/02 12:00:56;;;;;;;;;;;;;;;27.35;100.00;149587.16;5072254;28;20414;-79
2022/08/02 12:03:21;;;;;;;;;;;;;;;27.46;100.00;149615.47;5106100;28;20561;-79
2022/08/02 12:05:49;;;;;;;;;;;;;;;27.21;100.00;149553.66;5089299;28;20008;-80
2022/08/02 12:08:15;;;;;;;;;;;;;;;27.36;100.00;149591.03;5072529;28;20295;-82
2022/08/02 12:10:47;;;;;;;;;;;;;;;27.20;100.00;149551.06;5072815;28;19916;-82
2022/08/02 12:13:12;;;;;;;;;;;;;;;27.30;100.00;149575.53;5072210;28;19986;-81
2022/08/02 12:15:40;;;;;;;;;;;;;;;27.21;100.00;149553.66;5073656;28;20396;-79
2022/08/02 12:20:55;;;;;;;;;;;;;;;27.10;100.00;149524.03;5072695;28;20314;-76
2022/08/02 12:23:21;;;;;;;;;;;;;;;27.12;100.00;149529.22;5071862;28;19956;-78
2022/08/02 12:25:58;;;;;;;;;;;;;;;27.19;100.00;149547.19;5071418;28;19920;-77
2022/08/02 12:28:25;;;;;;;;;;;;;;;27.30;100.00;149574.22;5071214;28;19917;-80
2022/08/02 12:30:55;;;;;;;;;;;;;;;27.40;100.00;149601.28;5071492;28;19964;-78
2022/08/02 12:33:21;;;;;;;;;;;;;;;27.80;100.00;149700.41;5071295;28;19928;-79
2022/08/02 12:35:46;;;;;;;;;;;;;;;27.86;100.00;149714.53;5071992;28;19961;-80
2022/08/02 12:38:12;;;;;;;;;;;;;;;27.73;100.00;149682.38;5071164;28;19916;-80